sensor_id;sensor_type;location;lat;lon;timestamp;temperature;humidity
21171;DHT22;10743;52.160;20.910;2023-03-05T00:01:30;14.80;27.30
21171;DHT22;10743;52.160;20.910;2023-03-05T00:04:02;14.90;27.20
21171;DHT22;10743;52.160;20.910;2023-03-05T00:06:32;14.90;27.20
21171;DHT22;10743;52.160;20.910;2023-03-05T00:08:59;14.90;27.10
21171;DHT22;10743;52.160;20.910;2023-03-05T00:11:28;15.00;27.00
21171;DHT22;10743;52.160;20.910;2023-03-05T00:13:57;15.10;26.90
21171;DHT22;10743;52.160;20.910;2023-03-05T00:16:24;15.00;26.90
21171;DHT22;10743;52.160;20.910;2023-03-05T00:18:54;15.10;26.90
21171;DHT22;10743;52.160;20.910;2023-03-05T00:23:51;15.20;26.70
21171;DHT22;10743;52.160;20.910;2023-03-05T00:26:20;15.20;26.70
21171;DHT22;10743;52.160;20.910;2023-03-05T00:28:49;15.20;26.60
21171;DHT22;10743;52.160;20.910;2023-03-05T00:31:20;15.20;26.50
21171;DHT22;10743;52.160;20.910;2023-03-05T00:33:53;15.20;26.60
21171;DHT22;10743;52.160;20.910;2023-03-05T00:36:22;15.10;26.60
21171;DHT22;10743;52.160;20.910;2023-03-05T00:38:50;15.10;26.70
21171;DHT22;10743;52.160;20.910;2023-03-05T00:41:18;15.10;26.70
21171;DHT22;10743;52.160;20.910;2023-03-05T00:43:46;15.10;26.70
21171;DHT22;10743;52.160;20.910;2023-03-05T00:46:14;15.00;26.70
21171;DHT22;10743;52.160;20.910;2023-03-05T00:48:41;15.00;26.70
21171;DHT22;10743;52.160;20.910;2023-03-05T00:51:09;15.00;26.70
21171;DHT22;10743;52.160;20.910;2023-03-05T00:53:36;14.90;26.70
21171;DHT22;10743;52.160;20.910;2023-03-05T00:56:03;14.90;26.80
21171;DHT22;10743;52.160;20.910;2023-03-05T00:58:31;14.90;26.80
21171;DHT22;10743;52.160;20.910;2023-03-05T01:00:59;14.80;27.30
21171;DHT22;10743;52.160;20.910;2023-03-05T01:03:29;14.80;26.90
21171;DHT22;10743;52.160;20.910;2023-03-05T01:05:57;14.80;26.90
21171;DHT22;10743;52.160;20.910;2023-03-05T01:08:25;14.70;26.90
21171;DHT22;10743;52.160;20.910;2023-03-05T01:10:52;14.70;26.90
21171;DHT22;10743;52.160;20.910;2023-03-05T01:13:19;14.70;26.90
21171;DHT22;10743;52.160;20.910;2023-03-05T01:15:47;14.70;27.00
21171;DHT22;10743;52.160;20.910;2023-03-05T01:18:17;14.70;27.00
21171;DHT22;10743;52.160;20.910;2023-03-05T01:20:46;14.70;27.00
21171;DHT22;10743;52.160;20.910;2023-03-05T01:23:13;14.70;27.00
21171;DHT22;10743;52.160;20.910;2023-03-05T01:25:41;14.70;27.10
21171;DHT22;10743;52.160;20.910;2023-03-05T01:28:09;14.70;27.10
21171;DHT22;10743;52.160;20.910;2023-03-05T01:30:36;14.70;27.20
21171;DHT22;10743;52.160;20.910;2023-03-05T01:33:03;14.70;27.10
21171;DHT22;10743;52.160;20.910;2023-03-05T01:35:30;14.70;27.10
21171;DHT22;10743;52.160;20.910;2023-03-05T01:37:57;14.70;27.00
21171;DHT22;10743;52.160;20.910;2023-03-05T01:40:27;14.80;27.10
21171;DHT22;10743;52.160;20.910;2023-03-05T01:43:07;14.80;27.20
21171;DHT22;10743;52.160;20.910;2023-03-05T01:48:46;14.70;27.20
21171;DHT22;10743;52.160;20.910;2023-03-05T01:51:18;14.70;27.30
21171;DHT22;10743;52.160;20.910;2023-03-05T01:53:46;14.80;27.30
21171;DHT22;10743;52.160;20.910;2023-03-05T01:56:14;14.70;27.90
21171;DHT22;10743;52.160;20.910;2023-03-05T01:58:42;14.70;27.40
21171;DHT22;10743;52.160;20.910;2023-03-05T02:01:09;14.70;27.40
21171;DHT22;10743;52.160;20.910;2023-03-05T02:03:37;14.70;27.50
21171;DHT22;10743;52.160;20.910;2023-03-05T02:06:04;14.70;27.60
21171;DHT22;10743;52.160;20.910;2023-03-05T02:08:32;14.60;27.60
21171;DHT22;10743;52.160;20.910;2023-03-05T02:10:59;14.60;27.70
21171;DHT22;10743;52.160;20.910;2023-03-05T02:13:33;14.60;27.70
21171;DHT22;10743;52.160;20.910;2023-03-05T02:16:01;14.60;27.80
21171;DHT22;10743;52.160;20.910;2023-03-05T02:18:28;14.60;27.90
21171;DHT22;10743;52.160;20.910;2023-03-05T02:23:29;14.60;27.90
21171;DHT22;10743;52.160;20.910;2023-03-05T02:25:59;14.70;27.90
21171;DHT22;10743;52.160;20.910;2023-03-05T02:31:12;14.70;28.50
21171;DHT22;10743;52.160;20.910;2023-03-05T02:33:45;14.60;27.90
21171;DHT22;10743;52.160;20.910;2023-03-05T02:36:13;14.60;27.90
21171;DHT22;10743;52.160;20.910;2023-03-05T02:38:42;14.60;28.00
21171;DHT22;10743;52.160;20.910;2023-03-05T02:41:10;14.50;28.00
21171;DHT22;10743;52.160;20.910;2023-03-05T02:43:37;14.50;28.10
21171;DHT22;10743;52.160;20.910;2023-03-05T02:46:05;14.50;28.10
21171;DHT22;10743;52.160;20.910;2023-03-05T02:48:33;14.50;28.20
21171;DHT22;10743;52.160;20.910;2023-03-05T02:51:02;14.50;28.20
21171;DHT22;10743;52.160;20.910;2023-03-05T02:53:29;15.70;28.70
21171;DHT22;10743;52.160;20.910;2023-03-05T02:55:56;14.50;28.70
21171;DHT22;10743;52.160;20.910;2023-03-05T02:58:23;14.50;28.10
21171;DHT22;10743;52.160;20.910;2023-03-05T03:00:51;14.50;28.10
21171;DHT22;10743;52.160;20.910;2023-03-05T03:03:18;14.50;28.10
21171;DHT22;10743;52.160;20.910;2023-03-05T03:05:45;14.50;28.10
21171;DHT22;10743;52.160;20.910;2023-03-05T03:08:12;14.40;28.10
21171;DHT22;10743;52.160;20.910;2023-03-05T03:10:40;14.40;28.10
21171;DHT22;10743;52.160;20.910;2023-03-05T03:13:08;14.40;28.10
21171;DHT22;10743;52.160;20.910;2023-03-05T03:15:35;14.40;28.10
21171;DHT22;10743;52.160;20.910;2023-03-05T03:18:03;14.40;28.10
21171;DHT22;10743;52.160;20.910;2023-03-05T03:20:30;14.40;28.10
21171;DHT22;10743;52.160;20.910;2023-03-05T03:23:00;14.40;28.10
21171;DHT22;10743;52.160;20.910;2023-03-05T03:25:27;14.30;28.00
21171;DHT22;10743;52.160;20.910;2023-03-05T03:27:55;14.30;28.00
21171;DHT22;10743;52.160;20.910;2023-03-05T03:30:22;14.30;28.10
21171;DHT22;10743;52.160;20.910;2023-03-05T03:32:51;14.30;28.10
21171;DHT22;10743;52.160;20.910;2023-03-05T03:35:19;14.40;28.10
21171;DHT22;10743;52.160;20.910;2023-03-05T03:37:46;14.40;27.90
21171;DHT22;10743;52.160;20.910;2023-03-05T03:40:14;14.40;28.00
21171;DHT22;10743;52.160;20.910;2023-03-05T03:42:41;14.50;27.90
21171;DHT22;10743;52.160;20.910;2023-03-05T03:45:08;14.50;27.90
21171;DHT22;10743;52.160;20.910;2023-03-05T03:47:35;14.50;27.90
21171;DHT22;10743;52.160;20.910;2023-03-05T03:50:03;14.50;27.90
21171;DHT22;10743;52.160;20.910;2023-03-05T03:52:30;14.50;27.90
21171;DHT22;10743;52.160;20.910;2023-03-05T03:54:57;14.50;27.70
21171;DHT22;10743;52.160;20.910;2023-03-05T03:57:28;14.60;27.70
21171;DHT22;10743;52.160;20.910;2023-03-05T03:59:56;14.70;27.70
21171;DHT22;10743;52.160;20.910;2023-03-05T04:02:23;14.70;27.60
21171;DHT22;10743;52.160;20.910;2023-03-05T04:04:51;14.80;27.70
21171;DHT22;10743;52.160;20.910;2023-03-05T04:07:18;14.80;27.60
21171;DHT22;10743;52.160;20.910;2023-03-05T04:09:45;14.80;27.50
21171;DHT22;10743;52.160;20.910;2023-03-05T04:12:12;14.80;27.50
21171;DHT22;10743;52.160;20.910;2023-03-05T04:14:45;14.80;28.10
21171;DHT22;10743;52.160;20.910;2023-03-05T04:17:14;14.80;27.60
21171;DHT22;10743;52.160;20.910;2023-03-05T04:19:42;14.80;27.60
21171;DHT22;10743;52.160;20.910;2023-03-05T04:22:14;14.80;28.10
21171;DHT22;10743;52.160;20.910;2023-03-05T04:24:43;14.80;27.40
21171;DHT22;10743;52.160;20.910;2023-03-05T04:27:10;14.90;27.40
21171;DHT22;10743;52.160;20.910;2023-03-05T04:29:37;14.80;27.40
21171;DHT22;10743;52.160;20.910;2023-03-05T04:32:05;14.80;27.40
21171;DHT22;10743;52.160;20.910;2023-03-05T04:34:32;14.90;27.40
21171;DHT22;10743;52.160;20.910;2023-03-05T04:36:59;14.90;27.40
21171;DHT22;10743;52.160;20.910;2023-03-05T04:39:27;14.80;27.50
21171;DHT22;10743;52.160;20.910;2023-03-05T04:41:54;14.80;27.60
21171;DHT22;10743;52.160;20.910;2023-03-05T04:44:21;14.80;27.60
21171;DHT22;10743;52.160;20.910;2023-03-05T04:46:50;14.80;27.40
21171;DHT22;10743;52.160;20.910;2023-03-05T04:49:18;14.80;27.60
21171;DHT22;10743;52.160;20.910;2023-03-05T04:51:45;14.90;27.40
21171;DHT22;10743;52.160;20.910;2023-03-05T04:54:12;14.90;27.40
21171;DHT22;10743;52.160;20.910;2023-03-05T04:56:39;14.90;27.50
21171;DHT22;10743;52.160;20.910;2023-03-05T04:59:06;14.90;27.40
21171;DHT22;10743;52.160;20.910;2023-03-05T05:01:33;14.90;27.40
21171;DHT22;10743;52.160;20.910;2023-03-05T05:04:01;14.90;27.60
21171;DHT22;10743;52.160;20.910;2023-03-05T05:06:28;14.90;27.50
21171;DHT22;10743;52.160;20.910;2023-03-05T05:08:55;14.90;27.40
21171;DHT22;10743;52.160;20.910;2023-03-05T05:11:22;15.00;27.40
21171;DHT22;10743;52.160;20.910;2023-03-05T05:13:49;15.00;27.40
21171;DHT22;10743;52.160;20.910;2023-03-05T05:16:16;15.00;27.40
21171;DHT22;10743;52.160;20.910;2023-03-05T05:18:44;15.00;27.50
21171;DHT22;10743;52.160;20.910;2023-03-05T05:21:13;14.90;27.40
21171;DHT22;10743;52.160;20.910;2023-03-05T05:23:40;15.00;27.40
21171;DHT22;10743;52.160;20.910;2023-03-05T05:26:07;15.00;27.30
21171;DHT22;10743;52.160;20.910;2023-03-05T05:28:35;15.00;27.30
21171;DHT22;10743;52.160;20.910;2023-03-05T05:31:08;15.10;27.30
21171;DHT22;10743;52.160;20.910;2023-03-05T05:33:39;15.20;27.20
21171;DHT22;10743;52.160;20.910;2023-03-05T05:36:10;15.20;27.20
21171;DHT22;10743;52.160;20.910;2023-03-05T05:38:38;15.20;27.10
21171;DHT22;10743;52.160;20.910;2023-03-05T05:41:11;15.20;27.20
21171;DHT22;10743;52.160;20.910;2023-03-05T05:43:40;15.20;26.90
21171;DHT22;10743;52.160;20.910;2023-03-05T05:46:11;15.20;27.00
21171;DHT22;10743;52.160;20.910;2023-03-05T05:48:40;15.30;26.90
21171;DHT22;10743;52.160;20.910;2023-03-05T05:51:13;15.30;26.90
21171;DHT22;10743;52.160;20.910;2023-03-05T05:53:42;15.30;26.80
21171;DHT22;10743;52.160;20.910;2023-03-05T05:56:10;15.30;26.80
21171;DHT22;10743;52.160;20.910;2023-03-05T05:58:39;15.20;26.90
21171;DHT22;10743;52.160;20.910;2023-03-05T06:03:40;15.10;27.00
21171;DHT22;10743;52.160;20.910;2023-03-05T06:06:12;15.10;26.90
21171;DHT22;10743;52.160;20.910;2023-03-05T06:08:41;15.20;26.90
21171;DHT22;10743;52.160;20.910;2023-03-05T06:11:09;15.20;26.90
21171;DHT22;10743;52.160;20.910;2023-03-05T06:13:36;15.20;26.90
21171;DHT22;10743;52.160;20.910;2023-03-05T06:16:07;15.20;26.90
21171;DHT22;10743;52.160;20.910;2023-03-05T06:18:37;15.20;26.80
21171;DHT22;10743;52.160;20.910;2023-03-05T06:21:07;15.30;26.90
21171;DHT22;10743;52.160;20.910;2023-03-05T06:23:36;15.40;26.90
21171;DHT22;10743;52.160;20.910;2023-03-05T06:26:05;15.40;26.90
21171;DHT22;10743;52.160;20.910;2023-03-05T06:28:34;15.40;27.00
21171;DHT22;10743;52.160;20.910;2023-03-05T06:31:05;15.50;26.80
21171;DHT22;10743;52.160;20.910;2023-03-05T06:33:41;15.50;26.90
21171;DHT22;10743;52.160;20.910;2023-03-05T06:36:11;15.60;26.70
21171;DHT22;10743;52.160;20.910;2023-03-05T06:38:41;15.60;26.80
21171;DHT22;10743;52.160;20.910;2023-03-05T06:41:17;15.60;26.80
21171;DHT22;10743;52.160;20.910;2023-03-05T06:43:47;15.60;26.70
21171;DHT22;10743;52.160;20.910;2023-03-05T06:46:23;15.60;27.00
21171;DHT22;10743;52.160;20.910;2023-03-05T06:48:55;15.70;26.90
21171;DHT22;10743;52.160;20.910;2023-03-05T06:51:31;15.70;27.10
21171;DHT22;10743;52.160;20.910;2023-03-05T06:54:02;15.70;27.10
21171;DHT22;10743;52.160;20.910;2023-03-05T06:56:33;15.80;26.90
21171;DHT22;10743;52.160;20.910;2023-03-05T06:59:02;15.80;27.00
21171;DHT22;10743;52.160;20.910;2023-03-05T07:01:29;15.80;27.20
21171;DHT22;10743;52.160;20.910;2023-03-05T07:03:56;15.90;27.10
21171;DHT22;10743;52.160;20.910;2023-03-05T07:06:26;16.00;26.90
21171;DHT22;10743;52.160;20.910;2023-03-05T07:08:54;16.00;27.00
21171;DHT22;10743;52.160;20.910;2023-03-05T07:11:23;16.20;26.90
21171;DHT22;10743;52.160;20.910;2023-03-05T07:13:50;16.10;26.90
21171;DHT22;10743;52.160;20.910;2023-03-05T07:16:20;16.30;26.80
21171;DHT22;10743;52.160;20.910;2023-03-05T07:18:49;16.30;26.90
21171;DHT22;10743;52.160;20.910;2023-03-05T07:21:22;16.20;26.90
21171;DHT22;10743;52.160;20.910;2023-03-05T07:23:53;16.20;27.60
21171;DHT22;10743;52.160;20.910;2023-03-05T07:26:21;16.40;26.90
21171;DHT22;10743;52.160;20.910;2023-03-05T07:28:49;16.40;26.80
21171;DHT22;10743;52.160;20.910;2023-03-05T07:31:18;16.50;26.80
21171;DHT22;10743;52.160;20.910;2023-03-05T07:33:49;16.50;26.80
21171;DHT22;10743;52.160;20.910;2023-03-05T07:36:17;16.60;26.60
21171;DHT22;10743;52.160;20.910;2023-03-05T07:38:44;16.60;26.60
21171;DHT22;10743;52.160;20.910;2023-03-05T07:41:17;16.70;26.50
21171;DHT22;10743;52.160;20.910;2023-03-05T07:43:50;16.70;26.60
21171;DHT22;10743;52.160;20.910;2023-03-05T07:46:25;16.80;26.70
21171;DHT22;10743;52.160;20.910;2023-03-05T07:48:54;16.80;26.80
21171;DHT22;10743;52.160;20.910;2023-03-05T07:51:23;16.90;26.60
21171;DHT22;10743;52.160;20.910;2023-03-05T07:53:52;17.00;26.70
21171;DHT22;10743;52.160;20.910;2023-03-05T07:56:32;17.00;26.70
21171;DHT22;10743;52.160;20.910;2023-03-05T07:59:06;17.00;26.70
21171;DHT22;10743;52.160;20.910;2023-03-05T08:01:37;17.00;26.90
21171;DHT22;10743;52.160;20.910;2023-03-05T08:04:06;17.10;26.90
21171;DHT22;10743;52.160;20.910;2023-03-05T08:06:40;17.10;26.90
21171;DHT22;10743;52.160;20.910;2023-03-05T08:09:07;17.10;26.90
21171;DHT22;10743;52.160;20.910;2023-03-05T08:11:35;17.20;26.90
21171;DHT22;10743;52.160;20.910;2023-03-05T08:14:02;17.20;27.10
21171;DHT22;10743;52.160;20.910;2023-03-05T08:16:30;17.10;27.30
21171;DHT22;10743;52.160;20.910;2023-03-05T08:18:58;17.20;26.90
21171;DHT22;10743;52.160;20.910;2023-03-05T08:21:27;17.20;26.90
21171;DHT22;10743;52.160;20.910;2023-03-05T08:23:56;17.20;26.90
21171;DHT22;10743;52.160;20.910;2023-03-05T08:26:26;17.20;27.00
21171;DHT22;10743;52.160;20.910;2023-03-05T08:28:55;17.20;27.00
21171;DHT22;10743;52.160;20.910;2023-03-05T08:31:24;17.20;27.00
21171;DHT22;10743;52.160;20.910;2023-03-05T08:33:54;17.30;27.10
21171;DHT22;10743;52.160;20.910;2023-03-05T08:36:22;17.30;26.70
21171;DHT22;10743;52.160;20.910;2023-03-05T08:38:49;17.30;26.90
21171;DHT22;10743;52.160;20.910;2023-03-05T08:41:18;17.40;26.90
21171;DHT22;10743;52.160;20.910;2023-03-05T08:43:45;17.40;26.60
21171;DHT22;10743;52.160;20.910;2023-03-05T08:46:13;17.50;26.60
21171;DHT22;10743;52.160;20.910;2023-03-05T08:48:41;17.50;26.70
21171;DHT22;10743;52.160;20.910;2023-03-05T08:51:14;17.50;26.80
21171;DHT22;10743;52.160;20.910;2023-03-05T08:53:45;17.50;26.70
21171;DHT22;10743;52.160;20.910;2023-03-05T08:56:13;17.60;26.70
21171;DHT22;10743;52.160;20.910;2023-03-05T08:58:42;17.60;26.70
21171;DHT22;10743;52.160;20.910;2023-03-05T09:01:11;17.50;26.60
21171;DHT22;10743;52.160;20.910;2023-03-05T09:03:39;17.50;26.70
21171;DHT22;10743;52.160;20.910;2023-03-05T09:06:08;17.40;26.70
21171;DHT22;10743;52.160;20.910;2023-03-05T09:08:38;17.40;26.90
21171;DHT22;10743;52.160;20.910;2023-03-05T09:11:07;17.40;27.00
21171;DHT22;10743;52.160;20.910;2023-03-05T09:13:35;17.40;27.10
21171;DHT22;10743;52.160;20.910;2023-03-05T09:16:05;17.40;27.00
21171;DHT22;10743;52.160;20.910;2023-03-05T09:18:34;17.40;27.10
21171;DHT22;10743;52.160;20.910;2023-03-05T09:21:07;17.50;27.00
21171;DHT22;10743;52.160;20.910;2023-03-05T09:23:35;17.50;27.00
21171;DHT22;10743;52.160;20.910;2023-03-05T09:26:08;17.50;27.00
21171;DHT22;10743;52.160;20.910;2023-03-05T09:28:38;17.50;27.10
21171;DHT22;10743;52.160;20.910;2023-03-05T09:31:07;17.50;27.30
21171;DHT22;10743;52.160;20.910;2023-03-05T09:33:36;17.50;27.40
21171;DHT22;10743;52.160;20.910;2023-03-05T09:36:05;17.60;27.60
21171;DHT22;10743;52.160;20.910;2023-03-05T09:38:45;17.40;27.50
21171;DHT22;10743;52.160;20.910;2023-03-05T09:41:16;17.50;27.50
21171;DHT22;10743;52.160;20.910;2023-03-05T09:52:50;17.60;27.40
21171;DHT22;10743;52.160;20.910;2023-03-05T09:58:51;17.60;27.50
21171;DHT22;10743;52.160;20.910;2023-03-05T10:03:47;17.60;27.60
21171;DHT22;10743;52.160;20.910;2023-03-05T10:09:11;17.60;28.20
21171;DHT22;10743;52.160;20.910;2023-03-05T10:11:49;17.60;27.80
21171;DHT22;10743;52.160;20.910;2023-03-05T10:14:49;17.60;27.80
21171;DHT22;10743;52.160;20.910;2023-03-05T10:24:06;17.60;27.80
21171;DHT22;10743;52.160;20.910;2023-03-05T10:26:57;17.60;28.00
21171;DHT22;10743;52.160;20.910;2023-03-05T10:29:35;17.60;28.60
21171;DHT22;10743;52.160;20.910;2023-03-05T10:38:44;17.50;28.30
21171;DHT22;10743;52.160;20.910;2023-03-05T10:44:12;17.50;28.10
21171;DHT22;10743;52.160;20.910;2023-03-05T10:46:43;17.50;28.10
21171;DHT22;10743;52.160;20.910;2023-03-05T10:49:20;17.50;28.30
21171;DHT22;10743;52.160;20.910;2023-03-05T10:52:16;17.50;28.40
21171;DHT22;10743;52.160;20.910;2023-03-05T10:55:17;17.60;28.50
21171;DHT22;10743;52.160;20.910;2023-03-05T10:57:45;17.50;28.40
21171;DHT22;10743;52.160;20.910;2023-03-05T11:00:22;17.60;28.60
21171;DHT22;10743;52.160;20.910;2023-03-05T11:03:09;17.50;28.50
21171;DHT22;10743;52.160;20.910;2023-03-05T11:05:50;17.50;28.70
21171;DHT22;10743;52.160;20.910;2023-03-05T11:11:09;17.50;28.90
21171;DHT22;10743;52.160;20.910;2023-03-05T11:13:57;17.50;29.00
21171;DHT22;10743;52.160;20.910;2023-03-05T11:16:31;17.50;29.20
21171;DHT22;10743;52.160;20.910;2023-03-05T11:19:24;17.40;29.30
21171;DHT22;10743;52.160;20.910;2023-03-05T11:22:16;17.40;29.80
21171;DHT22;10743;52.160;20.910;2023-03-05T11:25:12;17.40;29.90
21171;DHT22;10743;52.160;20.910;2023-03-05T11:27:54;17.40;30.00
21171;DHT22;10743;52.160;20.910;2023-03-05T11:30:26;17.40;30.20
21171;DHT22;10743;52.160;20.910;2023-03-05T11:35:49;17.30;30.30
21171;DHT22;10743;52.160;20.910;2023-03-05T11:38:27;17.30;30.90
21171;DHT22;10743;52.160;20.910;2023-03-05T11:40:55;17.30;30.80
21171;DHT22;10743;52.160;20.910;2023-03-05T11:43:24;17.20;31.00
21171;DHT22;10743;52.160;20.910;2023-03-05T11:46:01;17.20;31.00
21171;DHT22;10743;52.160;20.910;2023-03-05T11:48:36;17.20;30.90
21171;DHT22;10743;52.160;20.910;2023-03-05T11:51:21;17.20;30.60
21171;DHT22;10743;52.160;20.910;2023-03-05T11:53:55;17.20;30.70
21171;DHT22;10743;52.160;20.910;2023-03-05T12:01:55;17.20;30.70
21171;DHT22;10743;52.160;20.910;2023-03-05T12:04:23;17.20;31.00
21171;DHT22;10743;52.160;20.910;2023-03-05T12:06:59;17.20;30.90
21171;DHT22;10743;52.160;20.910;2023-03-05T12:15:30;17.10;31.60
21171;DHT22;10743;52.160;20.910;2023-03-05T12:21:22;17.10;31.70
21171;DHT22;10743;52.160;20.910;2023-03-05T12:23:53;17.10;31.90
21171;DHT22;10743;52.160;20.910;2023-03-05T12:29:39;17.00;32.20
21171;DHT22;10743;52.160;20.910;2023-03-05T12:34:55;17.10;31.90
21171;DHT22;10743;52.160;20.910;2023-03-05T12:40:21;17.10;32.50
21171;DHT22;10743;52.160;20.910;2023-03-05T12:42:58;17.00;32.40
21171;DHT22;10743;52.160;20.910;2023-03-05T12:45:39;17.00;32.70
21171;DHT22;10743;52.160;20.910;2023-03-05T12:53:17;17.00;33.30
21171;DHT22;10743;52.160;20.910;2023-03-05T12:55:55;16.90;33.30
21171;DHT22;10743;52.160;20.910;2023-03-05T13:03:48;16.80;33.40
21171;DHT22;10743;52.160;20.910;2023-03-05T13:07:05;16.80;33.40
21171;DHT22;10743;52.160;20.910;2023-03-05T13:09:38;16.80;33.30
21171;DHT22;10743;52.160;20.910;2023-03-05T13:12:11;16.80;33.40
21171;DHT22;10743;52.160;20.910;2023-03-05T13:14:46;16.80;33.40
21171;DHT22;10743;52.160;20.910;2023-03-05T13:20:34;16.70;33.60
21171;DHT22;10743;52.160;20.910;2023-03-05T13:25:55;16.80;33.30
21171;DHT22;10743;52.160;20.910;2023-03-05T13:28:24;16.70;33.40
21171;DHT22;10743;52.160;20.910;2023-03-05T13:31:35;16.70;33.40
21171;DHT22;10743;52.160;20.910;2023-03-05T13:33:54;16.70;33.80
21171;DHT22;10743;52.160;20.910;2023-03-05T13:36:25;16.60;33.40
21171;DHT22;10743;52.160;20.910;2023-03-05T13:38:53;16.60;34.00
21171;DHT22;10743;52.160;20.910;2023-03-05T13:41:23;16.60;34.10
21171;DHT22;10743;52.160;20.910;2023-03-05T13:44:00;16.70;33.80
21171;DHT22;10743;52.160;20.910;2023-03-05T13:46:35;16.60;33.80
21171;DHT22;10743;52.160;20.910;2023-03-05T13:49:25;16.60;33.80
21171;DHT22;10743;52.160;20.910;2023-03-05T13:51:56;16.70;33.80
21171;DHT22;10743;52.160;20.910;2023-03-05T13:54:26;16.70;33.70
21171;DHT22;10743;52.160;20.910;2023-03-05T13:57:00;16.70;33.60
21171;DHT22;10743;52.160;20.910;2023-03-05T13:59:34;16.70;33.60
21171;DHT22;10743;52.160;20.910;2023-03-05T14:02:18;16.60;33.70
21171;DHT22;10743;52.160;20.910;2023-03-05T14:04:46;16.60;33.70
21171;DHT22;10743;52.160;20.910;2023-03-05T14:09:48;16.70;33.70
21171;DHT22;10743;52.160;20.910;2023-03-05T14:15:18;16.60;33.70
21171;DHT22;10743;52.160;20.910;2023-03-05T14:17:48;16.60;33.80
21171;DHT22;10743;52.160;20.910;2023-03-05T14:20:28;16.60;33.70
21171;DHT22;10743;52.160;20.910;2023-03-05T14:23:01;16.60;33.90
21171;DHT22;10743;52.160;20.910;2023-03-05T14:26:34;16.70;33.90
21171;DHT22;10743;52.160;20.910;2023-03-05T14:31:47;16.70;33.70
21171;DHT22;10743;52.160;20.910;2023-03-05T14:37:14;16.80;33.50
21171;DHT22;10743;52.160;20.910;2023-03-05T14:39:49;16.80;33.40
21171;DHT22;10743;52.160;20.910;2023-03-05T14:45:04;16.70;33.50
21171;DHT22;10743;52.160;20.910;2023-03-05T14:47:39;16.70;33.40
21171;DHT22;10743;52.160;20.910;2023-03-05T14:50:09;16.70;33.40
21171;DHT22;10743;52.160;20.910;2023-03-05T14:52:41;16.70;33.50
21171;DHT22;10743;52.160;20.910;2023-03-05T14:55:14;16.60;33.50
21171;DHT22;10743;52.160;20.910;2023-03-05T14:57:42;16.60;33.70
21171;DHT22;10743;52.160;20.910;2023-03-05T15:00:39;16.60;33.70
21171;DHT22;10743;52.160;20.910;2023-03-05T15:03:10;16.60;33.50
21171;DHT22;10743;52.160;20.910;2023-03-05T15:05:38;16.60;33.70
21171;DHT22;10743;52.160;20.910;2023-03-05T15:08:05;16.60;33.70
21171;DHT22;10743;52.160;20.910;2023-03-05T15:10:39;16.60;33.70
21171;DHT22;10743;52.160;20.910;2023-03-05T15:13:07;16.60;33.10
21171;DHT22;10743;52.160;20.910;2023-03-05T15:15:34;16.60;33.80
21171;DHT22;10743;52.160;20.910;2023-03-05T15:18:01;16.60;33.70
21171;DHT22;10743;52.160;20.910;2023-03-05T15:20:29;16.60;33.70
21171;DHT22;10743;52.160;20.910;2023-03-05T15:22:56;16.60;33.70
21171;DHT22;10743;52.160;20.910;2023-03-05T15:25:24;16.50;33.70
21171;DHT22;10743;52.160;20.910;2023-03-05T15:27:54;16.50;33.80
21171;DHT22;10743;52.160;20.910;2023-03-05T15:32:59;16.60;33.90
21171;DHT22;10743;52.160;20.910;2023-03-05T15:35:27;16.60;33.70
21171;DHT22;10743;52.160;20.910;2023-03-05T15:37:55;16.60;33.70
21171;DHT22;10743;52.160;20.910;2023-03-05T15:40:24;16.60;33.70
21171;DHT22;10743;52.160;20.910;2023-03-05T15:42:55;16.60;33.70
21171;DHT22;10743;52.160;20.910;2023-03-05T15:45:23;16.60;33.70
21171;DHT22;10743;52.160;20.910;2023-03-05T15:47:51;16.60;33.60
21171;DHT22;10743;52.160;20.910;2023-03-05T15:50:20;16.60;33.70
21171;DHT22;10743;52.160;20.910;2023-03-05T15:52:48;16.60;33.70
21171;DHT22;10743;52.160;20.910;2023-03-05T15:55:15;16.60;33.70
21171;DHT22;10743;52.160;20.910;2023-03-05T15:57:46;16.60;33.70
21171;DHT22;10743;52.160;20.910;2023-03-05T16:00:17;16.50;33.70
21171;DHT22;10743;52.160;20.910;2023-03-05T16:02:48;16.50;33.70
21171;DHT22;10743;52.160;20.910;2023-03-05T16:05:15;16.50;33.70
21171;DHT22;10743;52.160;20.910;2023-03-05T16:07:44;16.50;33.40
21171;DHT22;10743;52.160;20.910;2023-03-05T16:10:24;16.50;33.70
21171;DHT22;10743;52.160;20.910;2023-03-05T16:13:02;16.50;33.70
21171;DHT22;10743;52.160;20.910;2023-03-05T16:15:31;16.50;33.80
21171;DHT22;10743;52.160;20.910;2023-03-05T16:18:02;16.50;33.80
21171;DHT22;10743;52.160;20.910;2023-03-05T16:20:31;16.50;33.70
21171;DHT22;10743;52.160;20.910;2023-03-05T16:22:58;18.10;34.60
21171;DHT22;10743;52.160;20.910;2023-03-05T16:25:25;16.50;33.70
21171;DHT22;10743;52.160;20.910;2023-03-05T16:27:52;16.40;33.80
21171;DHT22;10743;52.160;20.910;2023-03-05T16:30:19;16.40;33.90
21171;DHT22;10743;52.160;20.910;2023-03-05T16:32:47;16.40;34.60
21171;DHT22;10743;52.160;20.910;2023-03-05T16:35:14;16.40;34.00
21171;DHT22;10743;52.160;20.910;2023-03-05T16:37:41;16.10;33.90
21171;DHT22;10743;52.160;20.910;2023-03-05T16:40:10;16.30;34.00
21171;DHT22;10743;52.160;20.910;2023-03-05T16:42:38;16.30;34.10
21171;DHT22;10743;52.160;20.910;2023-03-05T16:45:06;16.30;34.20
21171;DHT22;10743;52.160;20.910;2023-03-05T16:47:33;16.30;34.20
21171;DHT22;10743;52.160;20.910;2023-03-05T16:50:01;16.30;34.20
21171;DHT22;10743;52.160;20.910;2023-03-05T16:52:28;16.30;34.10
21171;DHT22;10743;52.160;20.910;2023-03-05T16:54:56;16.30;34.30
21171;DHT22;10743;52.160;20.910;2023-03-05T16:57:23;16.30;34.30
21171;DHT22;10743;52.160;20.910;2023-03-05T16:59:51;16.30;34.30
21171;DHT22;10743;52.160;20.910;2023-03-05T17:02:19;16.20;34.30
21171;DHT22;10743;52.160;20.910;2023-03-05T17:04:47;16.20;34.30
21171;DHT22;10743;52.160;20.910;2023-03-05T17:07:16;16.20;34.30
21171;DHT22;10743;52.160;20.910;2023-03-05T17:09:43;16.20;34.40
21171;DHT22;10743;52.160;20.910;2023-03-05T17:12:12;16.20;34.50
21171;DHT22;10743;52.160;20.910;2023-03-05T17:14:39;16.20;34.40
21171;DHT22;10743;52.160;20.910;2023-03-05T17:17:06;16.20;35.10
21171;DHT22;10743;52.160;20.910;2023-03-05T17:19:33;16.20;34.50
21171;DHT22;10743;52.160;20.910;2023-03-05T17:22:01;16.20;34.40
21171;DHT22;10743;52.160;20.910;2023-03-05T17:24:29;16.20;34.40
21171;DHT22;10743;52.160;20.910;2023-03-05T17:26:59;16.20;34.40